sensor_id;sensor_type;location;lat;lon;timestamp;temperature;humidity
50013;DHT22;35901;48.694;9.476;2024-03-02T00:00:20;2.90;99.90
50013;DHT22;35901;48.694;9.476;2024-03-02T00:02:49;2.90;99.90
50013;DHT22;35901;48.694;9.476;2024-03-02T00:05:22;2.90;99.90
50013;DHT22;35901;48.694;9.476;2024-03-02T00:07:58;2.80;99.90
50013;DHT22;35901;48.694;9.476;2024-03-02T00:10:36;2.70;99.90
50013;DHT22;35901;48.694;9.476;2024-03-02T00:13:05;2.70;99.90
50013;DHT22;35901;48.694;9.476;2024-03-02T00:15:47;2.60;99.90
50013;DHT22;35901;48.694;9.476;2024-03-02T00:18:16;2.40;99.90
50013;DHT22;35901;48.694;9.476;2024-03-02T00:20:44;2.30;99.90
50013;DHT22;35901;48.694;9.476;2024-03-02T00:23:10;2.40;99.90
50013;DHT22;35901;48.694;9.476;2024-03-02T00:25:41;2.40;99.90
50013;DHT22;35901;48.694;9.476;2024-03-02T00:28:21;2.20;99.90
50013;DHT22;35901;48.694;9.476;2024-03-02T00:31:09;2.30;99.90
50013;DHT22;35901;48.694;9.476;2024-03-02T00:33:42;2.50;99.90
50013;DHT22;35901;48.694;9.476;2024-03-02T00:36:09;2.60;99.90
50013;DHT22;35901;48.694;9.476;2024-03-02T00:38:46;2.80;99.90
50013;DHT22;35901;48.694;9.476;2024-03-02T00:44:02;3.00;99.90
50013;DHT22;35901;48.694;9.476;2024-03-02T00:46:32;3.00;99.90
50013;DHT22;35901;48.694;9.476;2024-03-02T00:49:00;3.00;99.90
50013;DHT22;35901;48.694;9.476;2024-03-02T00:51:29;3.00;99.90
50013;DHT22;35901;48.694;9.476;2024-03-02T00:53:58;2.80;99.90
50013;DHT22;35901;48.694;9.476;2024-03-02T00:56:25;2.60;99.90
50013;DHT22;35901;48.694;9.476;2024-03-02T00:58:52;2.50;99.90
50013;DHT22;35901;48.694;9.476;2024-03-02T01:01:18;2.40;99.90
50013;DHT22;35901;48.694;9.476;2024-03-02T01:03:45;2.40;99.90
50013;DHT22;35901;48.694;9.476;2024-03-02T01:06:11;2.30;99.90
50013;DHT22;35901;48.694;9.476;2024-03-02T01:08:38;2.30;99.90
50013;DHT22;35901;48.694;9.476;2024-03-02T01:11:04;2.30;99.90
50013;DHT22;35901;48.694;9.476;2024-03-02T01:13:30;2.50;99.90
50013;DHT22;35901;48.694;9.476;2024-03-02T01:15:56;2.60;99.90
50013;DHT22;35901;48.694;9.476;2024-03-02T01:18:22;2.50;99.90
50013;DHT22;35901;48.694;9.476;2024-03-02T01:20:48;2.40;99.90
50013;DHT22;35901;48.694;9.476;2024-03-02T01:23:18;2.40;99.90
50013;DHT22;35901;48.694;9.476;2024-03-02T01:25:45;2.40;99.90
50013;DHT22;35901;48.694;9.476;2024-03-02T01:28:11;2.40;99.90
50013;DHT22;35901;48.694;9.476;2024-03-02T01:30:37;2.40;99.90
50013;DHT22;35901;48.694;9.476;2024-03-02T01:33:03;2.40;99.90
50013;DHT22;35901;48.694;9.476;2024-03-02T01:35:31;2.30;99.90
50013;DHT22;35901;48.694;9.476;2024-03-02T01:37:56;2.30;99.90
50013;DHT22;35901;48.694;9.476;2024-03-02T01:40:22;2.20;99.90
50013;DHT22;35901;48.694;9.476;2024-03-02T01:42:52;2.40;99.90
50013;DHT22;35901;48.694;9.476;2024-03-02T01:45:18;2.50;99.90
50013;DHT22;35901;48.694;9.476;2024-03-02T01:47:43;2.60;99.90
50013;DHT22;35901;48.694;9.476;2024-03-02T01:50:11;2.50;99.90
50013;DHT22;35901;48.694;9.476;2024-03-02T01:52:37;2.50;99.90
50013;DHT22;35901;48.694;9.476;2024-03-02T01:55:03;2.50;99.90
50013;DHT22;35901;48.694;9.476;2024-03-02T01:57:29;2.50;99.90
50013;DHT22;35901;48.694;9.476;2024-03-02T01:59:55;2.50;99.90
50013;DHT22;35901;48.694;9.476;2024-03-02T02:02:21;2.30;99.90
50013;DHT22;35901;48.694;9.476;2024-03-02T02:04:47;2.30;99.90
50013;DHT22;35901;48.694;9.476;2024-03-02T02:07:13;2.20;99.90
50013;DHT22;35901;48.694;9.476;2024-03-02T02:09:43;2.20;99.90
50013;DHT22;35901;48.694;9.476;2024-03-02T02:12:09;2.20;99.90
50013;DHT22;35901;48.694;9.476;2024-03-02T02:14:36;2.30;99.90
50013;DHT22;35901;48.694;9.476;2024-03-02T02:17:01;2.20;99.90
50013;DHT22;35901;48.694;9.476;2024-03-02T02:19:27;2.10;99.90
50013;DHT22;35901;48.694;9.476;2024-03-02T02:21:53;2.10;99.90
50013;DHT22;35901;48.694;9.476;2024-03-02T02:24:18;2.10;99.90
50013;DHT22;35901;48.694;9.476;2024-03-02T02:26:44;2.10;99.90
50013;DHT22;35901;48.694;9.476;2024-03-02T02:29:09;2.20;99.90
50013;DHT22;35901;48.694;9.476;2024-03-02T02:31:39;2.30;99.90
50013;DHT22;35901;48.694;9.476;2024-03-02T02:34:05;2.40;99.90
50013;DHT22;35901;48.694;9.476;2024-03-02T02:36:35;2.40;99.90
50013;DHT22;35901;48.694;9.476;2024-03-02T02:39:03;2.40;99.90
50013;DHT22;35901;48.694;9.476;2024-03-02T02:41:30;2.20;99.90
50013;DHT22;35901;48.694;9.476;2024-03-02T02:43:56;1.90;99.90
50013;DHT22;35901;48.694;9.476;2024-03-02T02:46:22;1.80;99.90
50013;DHT22;35901;48.694;9.476;2024-03-02T02:48:47;1.80;99.90
50013;DHT22;35901;48.694;9.476;2024-03-02T02:51:13;1.80;99.90
50013;DHT22;35901;48.694;9.476;2024-03-02T02:53:38;1.70;99.90
50013;DHT22;35901;48.694;9.476;2024-03-02T02:56:07;1.70;99.90
50013;DHT22;35901;48.694;9.476;2024-03-02T02:58:33;1.70;99.90
50013;DHT22;35901;48.694;9.476;2024-03-02T03:00:59;1.70;99.90
50013;DHT22;35901;48.694;9.476;2024-03-02T03:03:24;1.50;99.90
50013;DHT22;35901;48.694;9.476;2024-03-02T03:05:50;1.30;99.90
50013;DHT22;35901;48.694;9.476;2024-03-02T03:08:15;1.20;99.90
50013;DHT22;35901;48.694;9.476;2024-03-02T03:10:41;1.20;99.90
50013;DHT22;35901;48.694;9.476;2024-03-02T03:13:07;1.20;99.90
50013;DHT22;35901;48.694;9.476;2024-03-02T03:15:36;1.20;99.90
50013;DHT22;35901;48.694;9.476;2024-03-02T03:18:05;1.30;99.90
50013;DHT22;35901;48.694;9.476;2024-03-02T03:20:31;1.20;99.90
50013;DHT22;35901;48.694;9.476;2024-03-02T03:22:57;1.20;99.90
50013;DHT22;35901;48.694;9.476;2024-03-02T03:25:23;1.20;99.90
50013;DHT22;35901;48.694;9.476;2024-03-02T03:27:48;1.20;99.90
50013;DHT22;35901;48.694;9.476;2024-03-02T03:30:14;1.20;99.90
50013;DHT22;35901;48.694;9.476;2024-03-02T03:32:40;1.20;99.90
50013;DHT22;35901;48.694;9.476;2024-03-02T03:35:06;1.20;99.90
50013;DHT22;35901;48.694;9.476;2024-03-02T03:37:32;1.10;99.90
50013;DHT22;35901;48.694;9.476;2024-03-02T03:40:02;1.20;99.90
50013;DHT22;35901;48.694;9.476;2024-03-02T03:42:28;1.30;99.90
50013;DHT22;35901;48.694;9.476;2024-03-02T03:44:54;1.30;99.90
50013;DHT22;35901;48.694;9.476;2024-03-02T03:47:19;1.30;99.90
50013;DHT22;35901;48.694;9.476;2024-03-02T03:49:46;1.30;99.90
50013;DHT22;35901;48.694;9.476;2024-03-02T03:52:11;1.30;99.90
50013;DHT22;35901;48.694;9.476;2024-03-02T03:54:37;1.30;99.90
50013;DHT22;35901;48.694;9.476;2024-03-02T03:57:04;1.20;99.90
50013;DHT22;35901;48.694;9.476;2024-03-02T03:59:30;1.40;99.90
50013;DHT22;35901;48.694;9.476;2024-03-02T04:01:56;1.30;99.90
50013;DHT22;35901;48.694;9.476;2024-03-02T04:04:21;1.40;99.90
50013;DHT22;35901;48.694;9.476;2024-03-02T04:06:49;1.30;99.90
50013;DHT22;35901;48.694;9.476;2024-03-02T04:09:15;1.10;99.90
50013;DHT22;35901;48.694;9.476;2024-03-02T04:11:40;0.90;99.90
50013;DHT22;35901;48.694;9.476;2024-03-02T04:14:06;0.90;99.90
50013;DHT22;35901;48.694;9.476;2024-03-02T04:16:32;0.80;99.90
50013;DHT22;35901;48.694;9.476;2024-03-02T04:18:57;0.90;99.90
50013;DHT22;35901;48.694;9.476;2024-03-02T04:21:23;0.90;99.90
50013;DHT22;35901;48.694;9.476;2024-03-02T04:23:49;0.90;99.90
50013;DHT22;35901;48.694;9.476;2024-03-02T04:26:14;0.90;99.90
50013;DHT22;35901;48.694;9.476;2024-03-02T04:28:45;0.90;99.90
50013;DHT22;35901;48.694;9.476;2024-03-02T04:31:10;0.90;99.90
50013;DHT22;35901;48.694;9.476;2024-03-02T04:33:36;1.00;99.90
50013;DHT22;35901;48.694;9.476;2024-03-02T04:36:01;1.10;99.90
50013;DHT22;35901;48.694;9.476;2024-03-02T04:38:27;1.10;99.90
50013;DHT22;35901;48.694;9.476;2024-03-02T04:40:54;1.20;99.90
50013;DHT22;35901;48.694;9.476;2024-03-02T04:43:19;1.20;99.90
50013;DHT22;35901;48.694;9.476;2024-03-02T04:45:45;1.10;99.90
50013;DHT22;35901;48.694;9.476;2024-03-02T04:48:11;0.90;99.90
50013;DHT22;35901;48.694;9.476;2024-03-02T04:50:36;0.80;99.90
50013;DHT22;35901;48.694;9.476;2024-03-02T04:53:02;0.70;99.90
50013;DHT22;35901;48.694;9.476;2024-03-02T04:55:28;0.70;99.90
50013;DHT22;35901;48.694;9.476;2024-03-02T04:57:53;0.70;99.90
50013;DHT22;35901;48.694;9.476;2024-03-02T05:00:20;0.60;99.90
50013;DHT22;35901;48.694;9.476;2024-03-02T05:02:46;0.50;99.90
50013;DHT22;35901;48.694;9.476;2024-03-02T05:05:12;0.40;99.90
50013;DHT22;35901;48.694;9.476;2024-03-02T05:07:38;0.40;99.90
50013;DHT22;35901;48.694;9.476;2024-03-02T05:10:03;0.50;99.90
50013;DHT22;35901;48.694;9.476;2024-03-02T05:12:29;0.40;99.90
50013;DHT22;35901;48.694;9.476;2024-03-02T05:14:55;0.20;99.90
50013;DHT22;35901;48.694;9.476;2024-03-02T05:17:21;0.10;99.90
50013;DHT22;35901;48.694;9.476;2024-03-02T05:19:47;0.00;99.90
50013;DHT22;35901;48.694;9.476;2024-03-02T05:22:13;0.00;99.90
50013;DHT22;35901;48.694;9.476;2024-03-02T05:24:39;0.10;99.90
50013;DHT22;35901;48.694;9.476;2024-03-02T05:27:04;0.30;99.90
50013;DHT22;35901;48.694;9.476;2024-03-02T05:29:31;0.40;99.90
50013;DHT22;35901;48.694;9.476;2024-03-02T05:31:57;0.50;99.90
50013;DHT22;35901;48.694;9.476;2024-03-02T05:34:22;0.60;99.90
50013;DHT22;35901;48.694;9.476;2024-03-02T05:36:48;0.50;99.90
50013;DHT22;35901;48.694;9.476;2024-03-02T05:39:14;0.30;99.90
50013;DHT22;35901;48.694;9.476;2024-03-02T05:41:39;0.30;99.90
50013;DHT22;35901;48.694;9.476;2024-03-02T05:44:05;0.40;99.90
50013;DHT22;35901;48.694;9.476;2024-03-02T05:46:31;0.60;99.90
50013;DHT22;35901;48.694;9.476;2024-03-02T05:48:57;0.70;99.90
50013;DHT22;35901;48.694;9.476;2024-03-02T05:51:23;0.80;99.90
50013;DHT22;35901;48.694;9.476;2024-03-02T05:53:48;0.90;99.90
50013;DHT22;35901;48.694;9.476;2024-03-02T05:56:14;0.80;99.90
50013;DHT22;35901;48.694;9.476;2024-03-02T05:58:41;0.60;99.90
50013;DHT22;35901;48.694;9.476;2024-03-02T06:01:32;0.50;99.90
50013;DHT22;35901;48.694;9.476;2024-03-02T06:03:58;0.40;99.90
50013;DHT22;35901;48.694;9.476;2024-03-02T06:06:24;0.40;99.90
50013;DHT22;35901;48.694;9.476;2024-03-02T06:08:50;0.30;99.90
50013;DHT22;35901;48.694;9.476;2024-03-02T06:11:16;0.30;99.90
50013;DHT22;35901;48.694;9.476;2024-03-02T06:13:42;0.30;99.90
50013;DHT22;35901;48.694;9.476;2024-03-02T06:16:07;0.10;99.90
50013;DHT22;35901;48.694;9.476;2024-03-02T06:18:34;0.00;99.90
50013;DHT22;35901;48.694;9.476;2024-03-02T06:21:00;-0.20;99.90
50013;DHT22;35901;48.694;9.476;2024-03-02T06:23:26;-0.30;99.90
50013;DHT22;35901;48.694;9.476;2024-03-02T06:25:52;-0.40;99.90
50013;DHT22;35901;48.694;9.476;2024-03-02T06:28:18;-0.50;99.90
50013;DHT22;35901;48.694;9.476;2024-03-02T06:30:44;-0.50;99.90
50013;DHT22;35901;48.694;9.476;2024-03-02T06:33:10;-0.50;99.90
50013;DHT22;35901;48.694;9.476;2024-03-02T06:35:36;-0.50;99.90
50013;DHT22;35901;48.694;9.476;2024-03-02T06:38:02;-0.50;99.90
50013;DHT22;35901;48.694;9.476;2024-03-02T06:40:28;-0.50;99.90
50013;DHT22;35901;48.694;9.476;2024-03-02T06:42:53;-0.40;99.90
50013;DHT22;35901;48.694;9.476;2024-03-02T06:45:19;-0.30;99.90
50013;DHT22;35901;48.694;9.476;2024-03-02T06:47:45;-0.30;99.90
50013;DHT22;35901;48.694;9.476;2024-03-02T06:50:11;-0.20;99.90
50013;DHT22;35901;48.694;9.476;2024-03-02T06:52:36;-0.20;99.90
50013;DHT22;35901;48.694;9.476;2024-03-02T06:55:02;-0.10;99.90
50013;DHT22;35901;48.694;9.476;2024-03-02T06:57:30;-0.10;99.90
50013;DHT22;35901;48.694;9.476;2024-03-02T06:59:55;0.00;99.90
50013;DHT22;35901;48.694;9.476;2024-03-02T07:02:24;0.10;99.90
50013;DHT22;35901;48.694;9.476;2024-03-02T07:04:52;0.20;99.90
50013;DHT22;35901;48.694;9.476;2024-03-02T07:07:18;0.30;99.90
50013;DHT22;35901;48.694;9.476;2024-03-02T07:09:44;0.40;99.90
50013;DHT22;35901;48.694;9.476;2024-03-02T07:12:09;0.50;99.90
50013;DHT22;35901;48.694;9.476;2024-03-02T07:14:35;0.50;99.90
50013;DHT22;35901;48.694;9.476;2024-03-02T07:17:33;0.50;99.90
50013;DHT22;35901;48.694;9.476;2024-03-02T07:19:59;0.60;99.90
50013;DHT22;35901;48.694;9.476;2024-03-02T07:22:25;0.70;99.90
50013;DHT22;35901;48.694;9.476;2024-03-02T07:24:50;0.80;99.90
50013;DHT22;35901;48.694;9.476;2024-03-02T07:27:17;0.90;99.90
50013;DHT22;35901;48.694;9.476;2024-03-02T07:29:43;0.90;99.90
50013;DHT22;35901;48.694;9.476;2024-03-02T07:32:09;1.00;99.90
50013;DHT22;35901;48.694;9.476;2024-03-02T07:34:35;1.10;99.90
50013;DHT22;35901;48.694;9.476;2024-03-02T07:37:01;1.20;99.90
50013;DHT22;35901;48.694;9.476;2024-03-02T07:39:27;1.20;99.90
50013;DHT22;35901;48.694;9.476;2024-03-02T07:41:53;1.30;99.90
50013;DHT22;35901;48.694;9.476;2024-03-02T07:44:19;1.50;99.90
50013;DHT22;35901;48.694;9.476;2024-03-02T07:46:46;1.60;99.90
50013;DHT22;35901;48.694;9.476;2024-03-02T07:49:12;1.80;99.90
50013;DHT22;35901;48.694;9.476;2024-03-02T07:51:41;2.10;99.90
50013;DHT22;35901;48.694;9.476;2024-03-02T07:54:06;2.60;99.90
50013;DHT22;35901;48.694;9.476;2024-03-02T07:56:32;3.20;99.90
50013;DHT22;35901;48.694;9.476;2024-03-02T07:58:58;3.90;99.90
50013;DHT22;35901;48.694;9.476;2024-03-02T08:01:51;4.40;99.90
50013;DHT22;35901;48.694;9.476;2024-03-02T08:04:42;4.70;99.90
50013;DHT22;35901;48.694;9.476;2024-03-02T08:17:40;7.50;99.90
50013;DHT22;35901;48.694;9.476;2024-03-02T08:20:14;7.70;99.90
50013;DHT22;35901;48.694;9.476;2024-03-02T08:22:40;7.70;99.90
50013;DHT22;35901;48.694;9.476;2024-03-02T08:25:06;7.70;99.90
50013;DHT22;35901;48.694;9.476;2024-03-02T08:27:32;7.70;99.90
50013;DHT22;35901;48.694;9.476;2024-03-02T08:29:58;7.90;99.90
50013;DHT22;35901;48.694;9.476;2024-03-02T08:32:24;7.90;99.90
50013;DHT22;35901;48.694;9.476;2024-03-02T08:34:49;8.10;99.90
50013;DHT22;35901;48.694;9.476;2024-03-02T08:37:15;8.40;99.90
50013;DHT22;35901;48.694;9.476;2024-03-02T08:39:41;8.50;99.90
50013;DHT22;35901;48.694;9.476;2024-03-02T08:42:07;8.50;99.90
50013;DHT22;35901;48.694;9.476;2024-03-02T08:44:33;8.50;99.90
50013;DHT22;35901;48.694;9.476;2024-03-02T08:46:59;8.50;99.90
50013;DHT22;35901;48.694;9.476;2024-03-02T08:49:25;8.40;99.90
50013;DHT22;35901;48.694;9.476;2024-03-02T08:51:50;8.30;99.90
50013;DHT22;35901;48.694;9.476;2024-03-02T08:54:23;8.30;99.90
50013;DHT22;35901;48.694;9.476;2024-03-02T08:56:52;8.20;99.90
50013;DHT22;35901;48.694;9.476;2024-03-02T08:59:18;8.40;99.90
50013;DHT22;35901;48.694;9.476;2024-03-02T09:01:43;8.80;99.90
50013;DHT22;35901;48.694;9.476;2024-03-02T09:04:10;9.10;99.90
50013;DHT22;35901;48.694;9.476;2024-03-02T09:06:36;9.30;99.90
50013;DHT22;35901;48.694;9.476;2024-03-02T09:09:01;9.30;99.90
50013;DHT22;35901;48.694;9.476;2024-03-02T09:11:27;9.20;99.90
50013;DHT22;35901;48.694;9.476;2024-03-02T09:13:53;9.30;99.90
50013;DHT22;35901;48.694;9.476;2024-03-02T09:16:20;9.70;99.90
50013;DHT22;35901;48.694;9.476;2024-03-02T09:18:45;9.90;99.90
50013;DHT22;35901;48.694;9.476;2024-03-02T09:21:11;9.90;99.90
50013;DHT22;35901;48.694;9.476;2024-03-02T09:23:37;10.00;99.90
50013;DHT22;35901;48.694;9.476;2024-03-02T09:26:03;10.30;99.90
50013;DHT22;35901;48.694;9.476;2024-03-02T09:28:29;10.40;99.90
50013;DHT22;35901;48.694;9.476;2024-03-02T09:30:55;10.80;99.90
50013;DHT22;35901;48.694;9.476;2024-03-02T09:33:20;11.30;99.90
50013;DHT22;35901;48.694;9.476;2024-03-02T09:35:46;11.70;99.90
50013;DHT22;35901;48.694;9.476;2024-03-02T09:38:11;12.10;99.90
50013;DHT22;35901;48.694;9.476;2024-03-02T09:40:37;12.30;99.90
50013;DHT22;35901;48.694;9.476;2024-03-02T09:43:03;12.10;99.90
50013;DHT22;35901;48.694;9.476;2024-03-02T09:45:30;12.00;99.90
50013;DHT22;35901;48.694;9.476;2024-03-02T09:47:55;12.40;99.90
50013;DHT22;35901;48.694;9.476;2024-03-02T09:50:21;12.50;99.90
50013;DHT22;35901;48.694;9.476;2024-03-02T09:52:49;12.50;99.90
50013;DHT22;35901;48.694;9.476;2024-03-02T09:55:16;12.50;99.90
50013;DHT22;35901;48.694;9.476;2024-03-02T09:57:43;13.10;99.90
50013;DHT22;35901;48.694;9.476;2024-03-02T10:00:09;13.50;99.90
50013;DHT22;35901;48.694;9.476;2024-03-02T10:02:43;13.40;99.90
50013;DHT22;35901;48.694;9.476;2024-03-02T10:05:09;13.80;99.90
50013;DHT22;35901;48.694;9.476;2024-03-02T10:07:36;13.50;99.90
50013;DHT22;35901;48.694;9.476;2024-03-02T10:10:14;13.40;99.90
50013;DHT22;35901;48.694;9.476;2024-03-02T10:12:40;13.80;99.90
50013;DHT22;35901;48.694;9.476;2024-03-02T10:15:06;14.10;99.90
50013;DHT22;35901;48.694;9.476;2024-03-02T10:17:33;14.20;99.90
50013;DHT22;35901;48.694;9.476;2024-03-02T10:19:59;14.30;99.90
50013;DHT22;35901;48.694;9.476;2024-03-02T10:22:24;15.00;99.90
50013;DHT22;35901;48.694;9.476;2024-03-02T10:24:51;14.70;99.90
50013;DHT22;35901;48.694;9.476;2024-03-02T10:27:27;14.50;99.90
50013;DHT22;35901;48.694;9.476;2024-03-02T10:29:55;14.60;99.90
50013;DHT22;35901;48.694;9.476;2024-03-02T10:32:22;14.70;99.90
50013;DHT22;35901;48.694;9.476;2024-03-02T10:34:50;15.20;99.90
50013;DHT22;35901;48.694;9.476;2024-03-02T10:37:17;15.20;99.90
50013;DHT22;35901;48.694;9.476;2024-03-02T10:39:43;15.20;99.90
50013;DHT22;35901;48.694;9.476;2024-03-02T10:42:11;14.90;99.90
50013;DHT22;35901;48.694;9.476;2024-03-02T10:44:38;15.30;99.90
50013;DHT22;35901;48.694;9.476;2024-03-02T10:47:05;15.40;99.90
50013;DHT22;35901;48.694;9.476;2024-03-02T10:49:31;15.40;99.90
50013;DHT22;35901;48.694;9.476;2024-03-02T10:52:01;15.20;99.90
50013;DHT22;35901;48.694;9.476;2024-03-02T10:54:27;15.50;99.90
50013;DHT22;35901;48.694;9.476;2024-03-02T10:56:58;16.20;99.90
50013;DHT22;35901;48.694;9.476;2024-03-02T10:59:28;16.10;99.90
50013;DHT22;35901;48.694;9.476;2024-03-02T11:01:59;15.80;99.90
50013;DHT22;35901;48.694;9.476;2024-03-02T11:04:26;15.90;99.90
50013;DHT22;35901;48.694;9.476;2024-03-02T11:06:56;15.80;99.90
50013;DHT22;35901;48.694;9.476;2024-03-02T11:09:27;15.90;99.90
50013;DHT22;35901;48.694;9.476;2024-03-02T11:12:02;16.00;99.90
50013;DHT22;35901;48.694;9.476;2024-03-02T11:14:30;16.10;99.90
50013;DHT22;35901;48.694;9.476;2024-03-02T11:16:58;16.10;99.90
50013;DHT22;35901;48.694;9.476;2024-03-02T11:19:25;16.90;98.50
50013;DHT22;35901;48.694;9.476;2024-03-02T11:21:51;16.50;99.90
50013;DHT22;35901;48.694;9.476;2024-03-02T11:27:09;16.10;99.90
50013;DHT22;35901;48.694;9.476;2024-03-02T11:32:22;17.10;99.90
50013;DHT22;35901;48.694;9.476;2024-03-02T11:34:51;16.90;99.90
50013;DHT22;35901;48.694;9.476;2024-03-02T11:37:17;16.90;99.90
50013;DHT22;35901;48.694;9.476;2024-03-02T11:39:49;16.80;99.90
50013;DHT22;35901;48.694;9.476;2024-03-02T11:42:15;16.10;99.90
50013;DHT22;35901;48.694;9.476;2024-03-02T11:44:50;16.40;99.90
50013;DHT22;35901;48.694;9.476;2024-03-02T11:47:16;16.20;99.90
50013;DHT22;35901;48.694;9.476;2024-03-02T11:49:48;16.60;99.90
50013;DHT22;35901;48.694;9.476;2024-03-02T11:52:15;16.70;99.90
50013;DHT22;35901;48.694;9.476;2024-03-02T11:54:44;16.90;99.90
50013;DHT22;35901;48.694;9.476;2024-03-02T11:57:20;16.90;99.90
50013;DHT22;35901;48.694;9.476;2024-03-02T11:59:48;16.90;99.90
50013;DHT22;35901;48.694;9.476;2024-03-02T12:02:19;16.80;99.90
50013;DHT22;35901;48.694;9.476;2024-03-02T12:04:46;16.50;99.90
50013;DHT22;35901;48.694;9.476;2024-03-02T12:07:18;16.60;99.90
50013;DHT22;35901;48.694;9.476;2024-03-02T12:09:45;16.20;99.90
50013;DHT22;35901;48.694;9.476;2024-03-02T12:12:11;16.40;99.90
50013;DHT22;35901;48.694;9.476;2024-03-02T12:14:38;17.30;99.00
50013;DHT22;35901;48.694;9.476;2024-03-02T12:17:05;17.10;98.10
50013;DHT22;35901;48.694;9.476;2024-03-02T12:19:32;17.20;93.70
50013;DHT22;35901;48.694;9.476;2024-03-02T12:22:01;17.40;92.10
50013;DHT22;35901;48.694;9.476;2024-03-02T12:24:30;17.40;91.00
50013;DHT22;35901;48.694;9.476;2024-03-02T12:26:56;17.70;90.10
50013;DHT22;35901;48.694;9.476;2024-03-02T12:29:22;17.40;91.60
50013;DHT22;35901;48.694;9.476;2024-03-02T12:31:50;17.40;90.30
50013;DHT22;35901;48.694;9.476;2024-03-02T12:34:18;17.10;90.40
50013;DHT22;35901;48.694;9.476;2024-03-02T12:36:45;16.60;91.20
50013;DHT22;35901;48.694;9.476;2024-03-02T12:39:13;16.60;93.30
50013;DHT22;35901;48.694;9.476;2024-03-02T12:41:39;16.70;91.70
50013;DHT22;35901;48.694;9.476;2024-03-02T12:44:05;17.10;90.10
50013;DHT22;35901;48.694;9.476;2024-03-02T12:46:32;17.20;86.00
50013;DHT22;35901;48.694;9.476;2024-03-02T12:48:58;17.10;88.90
50013;DHT22;35901;48.694;9.476;2024-03-02T12:51:30;17.20;93.70
50013;DHT22;35901;48.694;9.476;2024-03-02T12:53:57;17.30;88.90
50013;DHT22;35901;48.694;9.476;2024-03-02T12:56:24;17.30;83.40
50013;DHT22;35901;48.694;9.476;2024-03-02T12:58:54;17.30;82.50
50013;DHT22;35901;48.694;9.476;2024-03-02T13:01:20;17.10;82.70
50013;DHT22;35901;48.694;9.476;2024-03-02T13:03:51;17.10;82.20
50013;DHT22;35901;48.694;9.476;2024-03-02T13:06:18;17.20;79.40
50013;DHT22;35901;48.694;9.476;2024-03-02T13:08:45;17.00;80.80
50013;DHT22;35901;48.694;9.476;2024-03-02T13:11:12;16.90;77.50
50013;DHT22;35901;48.694;9.476;2024-03-02T13:13:39;16.60;79.00
50013;DHT22;35901;48.694;9.476;2024-03-02T13:16:09;16.30;90.50
50013;DHT22;35901;48.694;9.476;2024-03-02T13:18:36;17.00;90.10
50013;DHT22;35901;48.694;9.476;2024-03-02T13:21:02;16.90;85.70
50013;DHT22;35901;48.694;9.476;2024-03-02T13:23:27;17.30;79.20
50013;DHT22;35901;48.694;9.476;2024-03-02T13:25:58;17.30;83.70
50013;DHT22;35901;48.694;9.476;2024-03-02T13:28:24;17.30;76.70
50013;DHT22;35901;48.694;9.476;2024-03-02T13:30:50;17.20;82.50
50013;DHT22;35901;48.694;9.476;2024-03-02T13:33:16;17.10;75.40
50013;DHT22;35901;48.694;9.476;2024-03-02T13:35:44;16.90;79.20
50013;DHT22;35901;48.694;9.476;2024-03-02T13:38:10;17.00;76.50
50013;DHT22;35901;48.694;9.476;2024-03-02T13:40:36;17.00;74.10
50013;DHT22;35901;48.694;9.476;2024-03-02T13:43:02;16.90;76.80
50013;DHT22;35901;48.694;9.476;2024-03-02T13:45:28;16.80;83.40
50013;DHT22;35901;48.694;9.476;2024-03-02T13:47:54;16.70;79.30
50013;DHT22;35901;48.694;9.476;2024-03-02T13:50:19;16.70;77.80
50013;DHT22;35901;48.694;9.476;2024-03-02T13:52:46;16.80;76.20
50013;DHT22;35901;48.694;9.476;2024-03-02T13:55:11;16.60;72.70
50013;DHT22;35901;48.694;9.476;2024-03-02T13:57:38;16.60;73.80
50013;DHT22;35901;48.694;9.476;2024-03-02T14:00:05;16.50;81.50
50013;DHT22;35901;48.694;9.476;2024-03-02T14:02:37;16.80;83.50
50013;DHT22;35901;48.694;9.476;2024-03-02T14:05:03;16.90;74.10
50013;DHT22;35901;48.694;9.476;2024-03-02T14:07:29;16.80;76.90
50013;DHT22;35901;48.694;9.476;2024-03-02T14:09:54;16.60;73.20
50013;DHT22;35901;48.694;9.476;2024-03-02T14:12:20;16.60;79.00
50013;DHT22;35901;48.694;9.476;2024-03-02T14:14:47;16.50;76.60
50013;DHT22;35901;48.694;9.476;2024-03-02T14:17:13;16.40;75.90
50013;DHT22;35901;48.694;9.476;2024-03-02T14:19:41;16.30;81.60
50013;DHT22;35901;48.694;9.476;2024-03-02T14:22:06;16.40;82.00
50013;DHT22;35901;48.694;9.476;2024-03-02T14:24:32;16.30;75.80
50013;DHT22;35901;48.694;9.476;2024-03-02T14:26:57;16.20;77.40
50013;DHT22;35901;48.694;9.476;2024-03-02T14:29:27;16.00;82.00
50013;DHT22;35901;48.694;9.476;2024-03-02T14:31:52;15.90;80.50
50013;DHT22;35901;48.694;9.476;2024-03-02T14:34:18;15.70;79.80
50013;DHT22;35901;48.694;9.476;2024-03-02T14:36:44;15.60;87.40
50013;DHT22;35901;48.694;9.476;2024-03-02T14:39:10;15.40;87.90
50013;DHT22;35901;48.694;9.476;2024-03-02T14:41:36;15.30;90.20
50013;DHT22;35901;48.694;9.476;2024-03-02T14:44:02;15.10;88.20
50013;DHT22;35901;48.694;9.476;2024-03-02T14:46:28;15.10;87.10
50013;DHT22;35901;48.694;9.476;2024-03-02T14:48:54;15.00;84.00
50013;DHT22;35901;48.694;9.476;2024-03-02T14:51:20;15.00;87.90
50013;DHT22;35901;48.694;9.476;2024-03-02T14:53:46;14.90;90.80
50013;DHT22;35901;48.694;9.476;2024-03-02T14:56:11;14.80;95.30
50013;DHT22;35901;48.694;9.476;2024-03-02T14:58:39;14.80;94.40
50013;DHT22;35901;48.694;9.476;2024-03-02T15:01:05;14.80;91.70
50013;DHT22;35901;48.694;9.476;2024-03-02T15:03:35;14.70;94.80
50013;DHT22;35901;48.694;9.476;2024-03-02T15:06:01;14.60;95.30
50013;DHT22;35901;48.694;9.476;2024-03-02T15:08:28;14.50;98.10
50013;DHT22;35901;48.694;9.476;2024-03-02T15:10:54;14.60;98.80
50013;DHT22;35901;48.694;9.476;2024-03-02T15:13:22;14.50;99.60
50013;DHT22;35901;48.694;9.476;2024-03-02T15:15:48;14.30;99.90
50013;DHT22;35901;48.694;9.476;2024-03-02T15:18:13;14.30;99.90
50013;DHT22;35901;48.694;9.476;2024-03-02T15:20:39;14.20;99.90
50013;DHT22;35901;48.694;9.476;2024-03-02T15:23:06;14.00;99.90
50013;DHT22;35901;48.694;9.476;2024-03-02T15:25:32;14.00;99.90
50013;DHT22;35901;48.694;9.476;2024-03-02T15:27:57;14.00;99.90
50013;DHT22;35901;48.694;9.476;2024-03-02T15:30:23;14.00;99.90
50013;DHT22;35901;48.694;9.476;2024-03-02T15:32:49;13.80;99.90
50013;DHT22;35901;48.694;9.476;2024-03-02T15:35:14;13.50;99.90
50013;DHT22;35901;48.694;9.476;2024-03-02T15:37:40;13.20;99.90
50013;DHT22;35901;48.694;9.476;2024-03-02T15:40:06;13.00;99.90
50013;DHT22;35901;48.694;9.476;2024-03-02T15:42:34;12.90;99.90
50013;DHT22;35901;48.694;9.476;2024-03-02T15:45:00;12.60;99.90
50013;DHT22;35901;48.694;9.476;2024-03-02T15:47:26;12.30;99.90
50013;DHT22;35901;48.694;9.476;2024-03-02T15:49:52;12.30;99.90
50013;DHT22;35901;48.694;9.476;2024-03-02T15:52:17;12.30;99.90
50013;DHT22;35901;48.694;9.476;2024-03-02T15:54:49;12.20;99.90
50013;DHT22;35901;48.694;9.476;2024-03-02T15:57:15;12.00;99.90